Terminal Aerodrome Forecast
Issued by NWS Sioux Falls, SD

Home | Current Version | Previous Version | Graphics & Text | Print | Product List | Glossary Off
Versions: 1 2 3 4 5 6 7 8 9 10 11 12 13 14 15 16 17 18 19 20 21

000
FTUS43 KFSD 010949 AAC
TAFHON
TAF AMD
KHON 010949Z 0110/0206 13003KT 5SM BR OVC005
      TEMPO 0110/0112 4SM -SHRA BR BKN050
     FM011300 15006KT P6SM SCT005 BKN100
     FM011700 16007KT P6SM SCT045 BKN120
     FM020000 12008KT P6SM BKN100=

USA.gov is the U.S. government's official web portal to all federal, state and local government web resources and services.